Time;durP1;ratioP1;P1;durP2;ratioP2;P2;SDS_P1;SDS_P2;PMS_P1;PMS_P2;Temp;Humidity;BMP_temperature;BMP_pressure;BME280_temperature;BME280_humidity;BME280_pressure;Samples;Min_cycle;Max_cycle;Signal;HPM_P1;HPM_P2
2021/07/21 00:02:13;;;;;;;18.65;12.30;;;;;;;23.75;58.83;93877.09;4965514;28;21118;-72
2021/07/21 00:04:39;;;;;;;19.65;11.48;;;;;;;23.71;59.20;93878.97;4964199;28;20047;-73
2021/07/21 00:07:05;;;;;;;17.45;13.20;;;;;;;23.70;59.28;93876.66;4963225;28;20109;-72
2021/07/21 00:09:34;;;;;;;20.67;13.30;;;;;;;23.53;59.67;93864.50;4959607;28;20093;-73
2021/07/21 00:14:44;;;;;;;17.55;12.40;;;;;;;23.55;59.94;93864.94;4966399;28;20046;-73
2021/07/21 00:17:20;;;;;;;16.02;12.10;;;;;;;23.66;59.61;93879.28;4965364;28;20065;-73
2021/07/21 00:20:06;;;;;;;17.25;11.77;;;;;;;23.64;59.71;93883.53;4964399;28;20038;-73
2021/07/21 00:22:32;;;;;;;;;;;;;;;23.63;59.65;93882.75;4965256;28;20176;-73
2021/07/21 00:24:57;;;;;;;18.13;13.27;;;;;;;23.60;59.89;93878.06;4966644;28;19925;-73
2021/07/21 00:27:23;;;;;;;19.05;13.35;;;;;;;23.56;59.75;93877.25;4963058;28;20096;-72
2021/07/21 00:29:50;;;;;;;15.60;11.93;;;;;;;23.47;60.27;93862.50;4964009;28;20558;-72
2021/07/21 00:32:15;;;;;;;22.98;13.63;;;;;;;23.63;59.60;93871.94;4963829;28;20026;-73
2021/07/21 00:34:41;;;;;;;17.05;12.45;;;;;;;23.76;59.16;93885.94;4965660;28;20151;-72
2021/07/21 00:37:07;;;;;;;18.65;12.35;;;;;;;23.45;59.98;93862.88;4964943;28;20513;-73
2021/07/21 00:39:33;;;;;;;29.33;13.23;;;;;;;23.27;60.80;93870.72;4963913;28;20049;-72
2021/07/21 00:41:58;;;;;;;22.77;13.77;;;;;;;23.53;60.39;93878.00;4965365;28;20045;-73
2021/07/21 00:44:23;;;;;;;19.35;13.02;;;;;;;23.51;59.94;93864.09;4964941;28;20033;-72
2021/07/21 00:46:49;;;;;;;19.95;12.10;;;;;;;23.62;59.88;93875.78;4959774;28;20084;-73
2021/07/21 00:49:14;;;;;;;15.98;12.55;;;;;;;23.56;60.12;93866.47;4963265;28;20159;-72
2021/07/21 00:51:39;;;;;;;20.63;12.98;;;;;;;23.58;59.83;93864.19;4963371;28;20053;-72
2021/07/21 00:54:05;;;;;;;21.20;14.55;;;;;;;23.53;59.64;93853.72;4963965;28;21914;-73
2021/07/21 00:56:32;;;;;;;18.38;12.50;;;;;;;23.75;58.84;93862.81;4966481;28;20746;-72
2021/07/21 00:58:58;;;;;;;15.57;12.10;;;;;;;23.66;58.99;93868.50;4963451;28;20045;-73
2021/07/21 01:01:23;;;;;;;17.17;11.95;;;;;;;23.75;58.65;93863.59;4962165;28;20038;-72
2021/07/21 01:03:49;;;;;;;19.15;12.18;;;;;;;23.82;58.25;93854.81;4965236;28;20279;-72
2021/07/21 01:06:14;;;;;;;15.52;11.25;;;;;;;23.98;57.89;93873.47;4968395;28;20050;-72
2021/07/21 01:08:40;;;;;;;17.88;12.15;;;;;;;23.86;58.32;93871.03;4965413;28;20542;-71
2021/07/21 01:11:17;;;;;;;15.82;13.23;;;;;;;23.73;58.96;93865.91;4980569;28;20121;-73
2021/07/21 01:14:15;;;;;;;18.75;12.15;;;;;;;23.69;59.31;93872.41;4962179;28;20073;-72
2021/07/21 01:16:47;;;;;;;15.77;12.65;;;;;;;23.74;59.54;93874.78;4960943;28;20062;-71
2021/07/21 01:19:50;;;;;;;18.83;12.27;;;;;;;23.79;59.29;93874.44;4962359;28;20400;-72
2021/07/21 01:22:20;;;;;;;22.00;12.57;;;;;;;23.79;59.08;93862.88;4965304;28;20046;-72
2021/07/21 01:25:03;;;;;;;16.13;11.68;;;;;;;23.85;59.02;93866.78;4965170;28;21308;-74
2021/07/21 01:27:40;;;;;;;14.85;11.45;;;;;;;23.71;58.90;93862.00;4965415;28;20050;-73
2021/07/21 01:30:16;;;;;;;20.88;12.88;;;;;;;23.75;59.12;93873.59;4962258;28;20867;-72
2021/07/21 01:32:45;;;;;;;20.73;13.02;;;;;;;23.63;59.38;93871.94;4962363;28;20029;-73
2021/07/21 01:35:22;;;;;;;19.98;13.30;;;;;;;23.56;59.46;93866.47;4966052;28;20143;-72
2021/07/21 01:38:02;;;;;;;16.27;12.43;;;;;;;23.66;58.86;93870.41;4964828;28;20305;-73
2021/07/21 01:40:34;;;;;;;18.98;12.30;;;;;;;23.70;58.53;93873.97;4966283;28;20045;-73
2021/07/21 01:43:02;;;;;;;18.45;11.55;;;;;;;23.63;58.11;93861.16;4965451;28;20089;-72
2021/07/21 01:45:29;;;;;;;20.17;12.85;;;;;;;23.66;57.75;93876.59;4962247;28;20054;-73
2021/07/21 01:47:59;;;;;;;18.73;12.35;;;;;;;23.65;57.72;93864.25;4970336;28;20311;-72
2021/07/21 01:50:26;;;;;;;13.18;10.95;;;;;;;23.74;57.19;93869.38;4970674;28;20373;-72
2021/07/21 01:52:54;;;;;;;18.98;11.52;;;;;;;23.51;57.63;93863.31;4964721;28;20081;-72
2021/07/21 01:55:21;;;;;;;19.45;12.23;;;;;;;23.43;57.26;93848.16;4969433;28;20038;-72
2021/07/21 01:57:49;;;;;;;15.88;12.50;;;;;;;23.61;57.52;93868.06;4964399;28;20177;-72
2021/07/21 02:00:15;;;;;;;19.23;12.30;;;;;;;23.51;57.66;93871.41;4962082;28;20096;-72
2021/07/21 02:02:43;;;;;;;23.23;13.65;;;;;;;23.64;57.30;93867.34;4968563;28;20054;-72
2021/07/21 02:05:10;;;;;;;17.40;11.40;;;;;;;23.72;56.90;93861.63;4966823;28;20104;-72
2021/07/21 02:07:37;;;;;;;18.95;11.80;;;;;;;23.59;57.66;93849.56;4968006;28;20096;-74
2021/07/21 02:10:06;;;;;;;17.23;12.10;;;;;;;23.66;57.92;93867.72;4967144;28;20066;-72
2021/07/21 02:12:34;;;;;;;19.33;12.30;;;;;;;23.49;58.03;93866.41;4969388;28;20050;-73
2021/07/21 02:15:00;;;;;;;18.23;12.55;;;;;;;23.56;57.77;93869.16;4968208;28;20345;-72
2021/07/21 02:17:27;;;;;;;17.42;13.20;;;;;;;23.54;57.60;93863.38;4965144;28;20487;-74
2021/07/21 02:19:53;;;;;;;22.50;13.43;;;;;;;23.46;57.15;93859.03;4964925;28;20254;-71
2021/07/21 02:22:21;;;;;;;16.85;12.13;;;;;;;23.59;57.18;93884.63;4972570;28;20524;-73
2021/07/21 02:24:47;;;;;;;21.13;13.85;;;;;;;23.53;57.71;93877.22;4969806;28;20112;-72
2021/07/21 02:27:13;;;;;;;17.88;11.75;;;;;;;23.44;57.24;93874.00;4964843;28;20156;-72
2021/07/21 02:29:39;;;;;;;18.55;11.63;;;;;;;23.51;57.25;93882.19;4966900;28;20038;-73
2021/07/21 02:32:20;;;;;;;20.05;12.68;;;;;;;23.44;57.78;93879.41;4967460;28;20078;-72
2021/07/21 02:34:46;;;;;;;24.42;13.52;;;;;;;23.28;58.41;93883.06;4966090;28;20106;-72
2021/07/21 02:37:17;;;;;;;19.83;13.05;;;;;;;23.24;58.82;93865.28;4967999;28;20064;-73
2021/07/21 02:39:44;;;;;;;21.77;12.25;;;;;;;23.22;58.69;93867.56;4963910;28;20046;-73
2021/07/21 02:42:10;;;;;;;20.92;13.00;;;;;;;23.28;58.87;93883.06;4967037;28;20034;-73
2021/07/21 02:44:35;;;;;;;21.48;13.00;;;;;;;23.39;58.12;93866.22;4966987;28;20022;-72
2021/07/21 02:47:01;;;;;;;19.75;13.50;;;;;;;22.99;58.93;93875.72;4967403;28;20092;-73
2021/07/21 02:49:27;;;;;;;17.80;13.00;;;;;;;23.06;58.59;93891.22;4966485;28;20042;-71
2021/07/21 02:52:01;;;;;;;19.90;12.88;;;;;;;22.89;58.59;93881.75;4966910;28;20264;-72
2021/07/21 02:54:42;;;;;;;21.98;12.35;;;;;;;22.96;58.21;93887.25;4968611;28;20093;-73
2021/07/21 02:57:15;;;;;;;19.38;13.38;;;;;;;22.86;58.14;93882.50;4966006;28;20049;-72
2021/07/21 02:59:46;;;;;;;22.95;12.88;;;;;;;22.82;58.29;93882.41;4966546;28;20088;-71
2021/07/21 03:02:17;;;;;;;24.35;12.75;;;;;;;22.89;57.87;93892.53;4967426;28;20064;-72
2021/07/21 03:04:43;;;;;;;18.92;12.48;;;;;;;22.92;57.14;93886.41;4960293;28;20120;-71
2021/07/21 03:07:08;;;;;;;19.67;13.30;;;;;;;22.91;56.87;93874.09;4966714;28;20050;-72
2021/07/21 03:09:35;;;;;;;17.38;13.20;;;;;;;23.09;56.31;93898.59;4965578;28;20401;-71
2021/07/21 03:12:04;;;;;;;19.00;13.23;;;;;;;23.24;55.86;93903.03;4970588;28;21212;-73
2021/07/21 03:14:30;;;;;;;19.95;12.48;;;;;;;23.30;54.99;93907.75;4968057;28;20026;-73
2021/07/21 03:17:00;;;;;;;18.50;13.40;;;;;;;23.32;54.33;93900.06;4966156;28;20463;-72
2021/07/21 03:19:27;;;;;;;15.80;12.98;;;;;;;23.20;54.65;93902.22;4962780;28;20065;-73
2021/07/21 03:21:54;;;;;;;20.63;11.95;;;;;;;23.26;54.05;93906.16;4976989;28;20197;-72
2021/07/21 03:24:23;;;;;;;21.10;12.60;;;;;;;23.31;53.93;93914.66;4964081;28;20254;-73
2021/07/21 03:26:50;;;;;;;19.80;13.07;;;;;;;23.26;53.47;93916.94;4965842;28;20030;-72
2021/07/21 03:29:18;;;;;;;19.58;11.80;;;;;;;23.13;53.22;93899.41;4966918;28;20575;-72
2021/07/21 03:31:45;;;;;;;17.20;11.73;;;;;;;23.02;53.38;93901.19;4966167;28;20076;-73
2021/07/21 03:34:12;;;;;;;18.38;10.98;;;;;;;23.28;52.71;93914.63;4968287;28;20411;-73
2021/07/21 03:36:42;;;;;;;16.90;12.32;;;;;;;23.41;52.46;93926.72;4961719;28;20468;-72
2021/07/21 03:39:10;;;;;;;19.02;12.75;;;;;;;23.47;51.80;93933.41;4963552;28;20080;-73
2021/07/21 03:41:37;;;;;;;18.88;12.50;;;;;;;23.51;51.66;93914.56;4967502;28;20021;-71
2021/07/21 03:44:04;;;;;;;17.63;11.55;;;;;;;23.45;51.87;93922.22;4967071;28;20116;-73
2021/07/21 03:46:31;;;;;;;16.33;11.68;;;;;;;23.53;52.13;93920.38;4965952;28;20038;-73
2021/07/21 03:49:00;;;;;;;19.58;12.02;;;;;;;23.50;52.34;93932.69;4967176;28;21107;-72
2021/07/21 03:51:29;;;;;;;17.02;12.18;;;;;;;23.07;53.32;93928.59;4959688;28;20427;-73
2021/07/21 03:53:55;;;;;;;22.15;12.20;;;;;;;23.02;53.63;93928.91;4966594;28;20513;-73
2021/07/21 03:56:21;;;;;;;16.52;10.82;;;;;;;23.12;53.85;93946.38;4966266;28;20245;-72
2021/07/21 03:58:46;;;;;;;19.35;12.30;;;;;;;23.17;53.43;93940.66;4965485;28;20128;-73
2021/07/21 04:01:12;;;;;;;17.60;11.52;;;;;;;23.16;53.00;93945.31;4962992;28;20038;-72
2021/07/21 04:03:39;;;;;;;18.52;12.25;;;;;;;23.22;53.01;93951.13;4967212;28;20042;-73
2021/07/21 04:06:05;;;;;;;22.58;11.75;;;;;;;23.14;52.93;93949.47;4967565;28;20081;-73
2021/07/21 04:08:33;;;;;;;13.82;11.10;;;;;;;23.13;52.84;93950.63;4967081;28;20083;-73
2021/07/21 04:10:59;;;;;;;19.92;12.55;;;;;;;23.21;52.57;93957.69;4963029;28;20564;-71
2021/07/21 04:13:25;;;;;;;19.90;12.32;;;;;;;23.24;52.40;93962.34;4966794;28;20069;-73
2021/07/21 04:15:51;;;;;;;16.75;11.73;;;;;;;23.03;52.90;93956.63;4965180;28;20319;-73
2021/07/21 04:18:21;;;;;;;17.38;11.60;;;;;;;22.92;52.60;93948.38;4963104;28;20118;-73
2021/07/21 04:20:47;;;;;;;15.90;11.60;;;;;;;22.90;52.91;93953.38;4962427;28;20029;-72
2021/07/21 04:23:13;;;;;;;17.60;11.88;;;;;;;23.09;52.65;93965.97;4965031;28;20619;-72
2021/07/21 04:25:41;;;;;;;15.80;11.43;;;;;;;23.11;52.75;93966.41;4965699;28;20093;-73
2021/07/21 04:28:09;;;;;;;21.20;12.02;;;;;;;23.11;52.53;93959.09;4965893;28;20065;-74
2021/07/21 04:30:35;;;;;;;14.30;11.60;;;;;;;23.28;51.69;93960.47;4963124;28;20096;-70
2021/07/21 04:33:01;;;;;;;15.68;10.68;;;;;;;23.06;51.94;93940.53;4961779;28;20262;-71
2021/07/21 04:35:28;;;;;;;18.95;12.07;;;;;;;23.03;51.92;93967.41;4963086;28;20054;-72
2021/07/21 04:37:53;;;;;;;22.50;10.85;;;;;;;23.15;52.10;93953.75;4964654;28;20042;-70
2021/07/21 04:40:19;;;;;;;15.32;11.43;;;;;;;22.99;51.98;93951.19;4963086;28;20034;-71
2021/07/21 04:42:44;;;;;;;16.15;11.80;;;;;;;23.09;51.69;93955.19;4967234;28;20143;-74
2021/07/21 04:45:11;;;;;;;19.63;11.40;;;;;;;22.88;52.09;93952.94;4958881;28;20042;-73
2021/07/21 04:47:38;;;;;;;14.88;10.75;;;;;;;22.88;52.04;93955.63;4966938;28;20129;-71
2021/07/21 04:50:10;;;;;;;19.08;10.55;;;;;;;22.96;52.40;93951.16;4959427;28;20718;-71
2021/07/21 04:52:36;;;;;;;19.85;12.45;;;;;;;23.21;51.84;93963.84;4965851;28;20065;-72
2021/07/21 04:55:03;;;;;;;18.10;11.85;;;;;;;23.19;51.43;93970.75;4962711;28;20505;-71
2021/07/21 04:57:28;;;;;;;18.38;11.65;;;;;;;23.14;51.64;93979.13;4963770;28;20041;-72
2021/07/21 04:59:53;;;;;;;19.90;11.52;;;;;;;23.17;51.64;93973.00;4968257;28;20594;-70
2021/07/21 05:02:19;;;;;;;17.00;10.75;;;;;;;23.32;51.43;93969.38;4967080;28;20714;-72
2021/07/21 05:04:44;;;;;;;16.13;12.02;;;;;;;23.24;51.31;93968.50;4968200;28;20038;-71
2021/07/21 05:07:10;;;;;;;13.48;11.32;;;;;;;23.25;51.05;93972.00;4966078;28;21561;-71
2021/07/21 05:09:35;;;;;;;15.98;11.05;;;;;;;23.12;50.64;93938.28;4964644;28;20782;-70
2021/07/21 05:12:02;;;;;;;15.68;11.13;;;;;;;23.42;50.91;93986.84;4964574;28;20034;-72
2021/07/21 05:14:27;;;;;;;19.17;12.25;;;;;;;23.31;50.82;93992.13;4964048;28;20120;-71
2021/07/21 05:16:53;;;;;;;18.45;12.20;;;;;;;23.37;50.64;93990.63;4964278;28;20103;-73
2021/07/21 05:19:18;;;;;;;18.17;11.45;;;;;;;23.47;50.64;93990.03;4965530;28;20426;-71
2021/07/21 05:21:44;;;;;;;18.60;11.45;;;;;;;23.37;50.72;94004.13;4964851;28;20084;-71
2021/07/21 05:24:09;;;;;;;16.52;12.20;;;;;;;23.35;50.56;93995.63;4962477;28;20048;-72
2021/07/21 05:26:35;;;;;;;15.50;12.15;;;;;;;23.41;50.25;93994.16;4964650;28;20100;-70
2021/07/21 05:29:02;;;;;;;21.02;11.95;;;;;;;23.40;49.31;93994.53;4961186;28;20042;-72
2021/07/21 05:31:28;;;;;;;16.20;12.02;;;;;;;23.42;50.18;93976.84;4962443;28;20133;-73
2021/07/21 05:33:53;;;;;;;14.57;10.93;;;;;;;23.67;49.94;93999.56;4966692;28;20061;-72
2021/07/21 05:36:19;;;;;;;16.98;11.73;;;;;;;23.78;48.93;93985.44;4962457;28;20038;-72
2021/07/21 05:38:45;;;;;;;18.58;11.52;;;;;;;23.80;47.71;93983.16;4964661;28;20029;-72
2021/07/21 05:41:11;;;;;;;15.85;11.75;;;;;;;23.84;48.52;93983.97;4964127;28;20046;-73
2021/07/21 05:43:36;;;;;;;20.55;12.27;;;;;;;23.92;47.87;93980.22;4962164;28;20408;-71
2021/07/21 05:46:03;;;;;;;16.92;11.50;;;;;;;23.81;48.26;93984.69;4963381;28;20595;-71
2021/07/21 05:48:29;;;;;;;16.92;11.70;;;;;;;23.99;47.25;93991.09;4962794;28;20152;-73
2021/07/21 05:50:54;;;;;;;18.45;11.43;;;;;;;23.97;46.00;94002.25;4963439;28;20755;-72
2021/07/21 05:53:20;;;;;;;24.67;12.68;;;;;;;23.92;46.55;93991.78;4964410;28;20125;-71
2021/07/21 05:55:46;;;;;;;18.70;12.05;;;;;;;24.08;46.59;93994.28;4963339;28;20136;-71
2021/07/21 05:58:11;;;;;;;16.58;11.55;;;;;;;24.05;45.75;93995.78;4966421;28;20038;-72
2021/07/21 06:00:37;;;;;;;18.25;10.38;;;;;;;24.07;45.55;93998.13;4963576;28;20050;-70
2021/07/21 06:03:02;;;;;;;19.30;11.52;;;;;;;24.10;45.67;93994.69;4965290;28;20049;-72
2021/07/21 06:05:28;;;;;;;17.15;11.77;;;;;;;24.05;44.82;93986.91;4964779;28;20080;-71
2021/07/21 06:07:53;;;;;;;15.93;10.70;;;;;;;24.08;45.00;93986.19;4965852;28;20050;-73
2021/07/21 06:10:18;;;;;;;19.83;11.35;;;;;;;24.21;45.11;93998.31;4965028;28;20079;-72
2021/07/21 06:12:44;;;;;;;19.15;11.70;;;;;;;24.27;44.92;93996.84;4965627;28;20038;-71
2021/07/21 06:15:09;;;;;;;18.55;11.70;;;;;;;24.35;44.54;93984.97;4963830;28;20096;-71
2021/07/21 06:17:35;;;;;;;14.60;10.93;;;;;;;24.40;43.82;93973.81;4964415;28;20066;-72
2021/07/21 06:20:04;;;;;;;20.17;10.90;;;;;;;24.34;42.12;93996.91;4964412;28;20068;-72
2021/07/21 06:22:33;;;;;;;17.33;12.02;;;;;;;24.35;41.88;93987.66;4962551;28;20521;-70
2021/07/21 06:25:00;;;;;;;14.05;10.80;;;;;;;24.44;42.91;93990.06;4962806;28;20041;-71
2021/07/21 06:27:26;;;;;;;16.70;10.93;;;;;;;24.56;42.84;93998.69;4960777;28;20080;-72
2021/07/21 06:29:52;;;;;;;17.30;11.25;;;;;;;24.62;43.42;94001.84;4962290;28;22149;-71
2021/07/21 06:32:18;;;;;;;18.08;11.10;;;;;;;24.60;43.36;93994.09;4965623;28;20121;-72
2021/07/21 06:34:43;;;;;;;16.83;10.98;;;;;;;24.78;42.74;94010.47;4966082;28;20405;-72
2021/07/21 06:37:09;;;;;;;14.63;10.02;;;;;;;24.68;42.26;94000.31;4965325;28;20069;-72
2021/07/21 06:39:34;;;;;;;17.92;11.38;;;;;;;24.36;43.02;93966.84;4965399;28;20432;-71
2021/07/21 06:42:00;;;;;;;15.70;11.07;;;;;;;24.51;43.09;93992.84;4967164;28;20034;-71
2021/07/21 06:44:25;;;;;;;12.85;10.88;;;;;;;24.57;43.13;94011.06;4965642;28;20504;-72
2021/07/21 06:46:51;;;;;;;16.85;11.07;;;;;;;24.63;43.22;94019.59;4966663;28;20038;-70
2021/07/21 06:49:16;;;;;;;15.73;11.35;;;;;;;24.55;42.66;94024.16;4967428;28;20144;-71
2021/07/21 06:51:42;;;;;;;19.02;10.98;;;;;;;24.57;41.27;94040.78;4963674;28;20180;-72
2021/07/21 06:54:07;;;;;;;16.17;9.70;;;;;;;24.39;41.01;94031.69;4967787;28;20584;-71
2021/07/21 06:56:33;;;;;;;14.18;9.50;;;;;;;24.33;40.94;94030.50;4966768;28;20025;-72
2021/07/21 06:58:58;;;;;;;16.63;10.43;;;;;;;24.45;41.62;94030.22;4979890;28;20335;-71
2021/07/21 07:01:23;;;;;;;15.05;10.07;;;;;;;24.51;40.86;94026.03;4974330;28;20034;-72
2021/07/21 07:03:49;;;;;;;14.73;10.85;;;;;;;24.52;41.08;94021.41;4965316;28;20042;-73
2021/07/21 07:06:16;;;;;;;13.52;10.38;;;;;;;24.64;40.72;94028.47;4967012;28;20824;-72
2021/07/21 07:08:41;;;;;;;14.85;10.52;;;;;;;24.67;40.45;94023.13;4966421;28;20829;-72
2021/07/21 07:11:07;;;;;;;15.80;10.18;;;;;;;24.76;40.02;94023.59;4965236;28;20632;-72
2021/07/21 07:13:33;;;;;;;17.67;9.90;;;;;;;24.84;41.56;94016.31;4964453;28;20084;-71
2021/07/21 07:16:00;;;;;;;13.50;8.98;;;;;;;24.95;40.56;94014.50;4958993;28;20048;-72
2021/07/21 07:18:26;;;;;;;12.65;9.70;;;;;;;24.88;40.63;94028.72;4964565;28;20038;-71
2021/07/21 07:20:53;;;;;;;17.42;10.48;;;;;;;24.77;40.32;94017.03;4963613;28;20025;-71
2021/07/21 07:23:18;;;;;;;13.27;9.68;;;;;;;24.67;40.44;94020.41;4968854;28;20022;-71
2021/07/21 07:25:43;;;;;;;13.93;10.23;;;;;;;24.78;40.70;94004.28;4962615;28;20049;-72
2021/07/21 07:28:09;;;;;;;14.13;10.27;;;;;;;24.91;39.71;94008.31;4965392;28;20057;-72
2021/07/21 07:30:35;;;;;;;14.20;9.25;;;;;;;25.04;39.69;94023.09;4963113;28;20180;-72
2021/07/21 07:33:01;;;;;;;15.02;9.60;;;;;;;25.06;39.78;94020.78;4965284;28;20774;-73
2021/07/21 07:35:27;;;;;;;15.50;9.45;;;;;;;25.20;39.77;94023.59;4966867;28;20137;-71
2021/07/21 07:37:53;;;;;;;15.90;9.30;;;;;;;25.30;39.54;94031.03;4964849;28;20080;-72
2021/07/21 07:40:19;;;;;;;14.32;9.73;;;;;;;25.48;39.60;94024.94;4964640;28;20511;-72
2021/07/21 07:42:45;;;;;;;13.27;9.73;;;;;;;25.31;38.90;94013.66;4982439;28;20034;-71
2021/07/21 07:45:11;;;;;;;15.80;9.07;;;;;;;25.44;38.78;94023.00;4959629;28;20802;-72
2021/07/21 07:47:36;;;;;;;17.35;10.00;;;;;;;25.39;38.74;94026.06;4967407;28;20057;-72
2021/07/21 07:50:07;;;;;;;19.42;9.55;;;;;;;25.29;38.39;94018.66;4970154;28;20034;-72
2021/07/21 07:52:33;;;;;;;14.48;9.20;;;;;;;25.30;38.19;94025.63;4959420;28;20042;-71
2021/07/21 07:54:59;;;;;;;16.52;9.55;;;;;;;25.26;39.23;94024.03;4966436;28;20184;-72
2021/07/21 07:57:25;;;;;;;13.95;9.18;;;;;;;25.22;38.92;94017.81;4966129;28;20048;-71
2021/07/21 07:59:50;;;;;;;12.30;8.35;;;;;;;25.27;38.36;94020.16;4966658;28;20093;-72
2021/07/21 08:02:15;;;;;;;12.93;9.27;;;;;;;25.23;38.67;94020.13;4976900;28;20076;-72
2021/07/21 08:04:41;;;;;;;16.65;8.73;;;;;;;25.20;38.67;94023.59;4987395;28;20147;-72
2021/07/21 08:07:06;;;;;;;13.82;8.38;;;;;;;25.32;38.87;94023.28;4987509;28;20113;-71
2021/07/21 08:09:32;;;;;;;13.55;8.88;;;;;;;25.52;37.83;94015.69;4987481;28;20565;-71
2021/07/21 08:11:59;;;;;;;10.85;7.40;;;;;;;25.56;37.52;94015.78;4983490;28;20026;-72
2021/07/21 08:14:25;;;;;;;15.25;9.07;;;;;;;25.52;38.27;94009.50;4986426;28;20030;-71
2021/07/21 08:16:53;;;;;;;15.05;8.18;;;;;;;25.56;38.08;94026.59;4983820;28;20045;-72
2021/07/21 08:19:20;;;;;;;12.43;8.23;;;;;;;25.71;37.46;94017.38;4986206;28;20499;-72
2021/07/21 08:21:46;;;;;;;13.70;7.88;;;;;;;25.80;37.91;94025.97;4984300;28;20129;-72
2021/07/21 08:24:13;;;;;;;12.88;8.60;;;;;;;25.79;36.70;94021.69;4986213;28;20041;-71
2021/07/21 08:26:39;;;;;;;13.63;8.50;;;;;;;25.79;36.03;94037.94;4982903;28;20034;-71
2021/07/21 08:29:05;;;;;;;12.93;8.80;;;;;;;25.72;36.43;94030.53;4985179;28;20042;-72
2021/07/21 08:31:31;;;;;;;14.45;8.80;;;;;;;25.79;35.49;94036.00;4984456;28;20583;-72
2021/07/21 08:34:00;;;;;;;11.43;8.05;;;;;;;25.63;35.38;94037.44;4981702;28;20054;-72
2021/07/21 08:36:27;;;;;;;15.88;8.18;;;;;;;25.20;35.00;93993.84;4986831;28;20046;-71
2021/07/21 08:38:53;;;;;;;11.13;7.47;;;;;;;25.50;35.71;94034.25;4984927;28;20026;-72
2021/07/21 08:41:19;;;;;;;11.50;7.80;;;;;;;25.44;36.10;94039.25;4986112;28;20392;-71
2021/07/21 08:43:45;;;;;;;13.85;8.07;;;;;;;25.45;36.15;94035.38;4985487;28;20045;-70
2021/07/21 08:46:11;;;;;;;13.85;8.20;;;;;;;25.46;36.47;94034.22;4986224;28;20070;-71
2021/07/21 08:48:36;;;;;;;13.88;8.95;;;;;;;25.43;36.41;94024.16;4983459;28;20042;-71
2021/07/21 08:51:03;;;;;;;15.07;7.78;;;;;;;25.48;35.98;94039.25;4985529;28;20436;-71
2021/07/21 08:53:29;;;;;;;11.98;8.45;;;;;;;25.35;35.68;94025.25;4983548;28;20560;-71
2021/07/21 08:55:55;;;;;;;12.18;7.85;;;;;;;25.44;36.91;94041.16;4983450;28;20809;-72
2021/07/21 08:58:20;;;;;;;14.10;8.70;;;;;;;25.55;37.14;94038.56;4983119;28;20067;-71
2021/07/21 09:00:50;;;;;;;11.95;8.27;;;;;;;25.50;37.40;94033.47;4984900;28;20069;-71
2021/07/21 09:03:17;;;;;;;13.75;9.07;;;;;;;25.43;37.46;94034.97;4986446;28;20042;-71
2021/07/21 09:05:42;;;;;;;13.85;8.20;;;;;;;25.45;37.88;94046.22;4985569;28;20046;-71
2021/07/21 09:08:10;;;;;;;13.43;9.02;;;;;;;25.46;37.44;94052.41;4983735;28;20138;-71
2021/07/21 09:10:36;;;;;;;15.30;8.77;;;;;;;25.36;37.13;94032.22;4983533;28;20046;-71
2021/07/21 09:13:02;;;;;;;15.88;9.52;;;;;;;25.23;37.16;94030.97;4982838;28;20053;-72
2021/07/21 09:15:28;;;;;;;12.52;8.68;;;;;;;25.34;37.47;94042.66;4979548;28;20057;-71
2021/07/21 09:17:59;;;;;;;13.75;9.25;;;;;;;25.39;38.01;94034.19;4985516;28;20133;-71
2021/07/21 09:20:25;;;;;;;12.93;9.13;;;;;;;25.31;37.37;94032.59;4982821;28;20507;-71
2021/07/21 09:22:55;;;;;;;12.60;8.65;;;;;;;25.42;37.67;94044.25;4986107;28;20254;-73
2021/07/21 09:25:25;;;;;;;17.23;9.05;;;;;;;25.46;37.17;94034.22;4980934;28;20065;-72
2021/07/21 09:27:55;;;;;;;12.50;8.45;;;;;;;25.51;37.86;94041.19;4983610;28;20038;-70
2021/07/21 09:30:29;;;;;;;14.10;9.52;;;;;;;25.43;37.38;94045.78;4981305;28;20058;-71
2021/07/21 09:32:59;;;;;;;11.20;8.88;;;;;;;25.46;37.71;94034.22;4983489;28;20033;-71
2021/07/21 09:35:31;;;;;;;21.77;10.57;;;;;;;25.49;38.02;94026.50;4984815;28;20022;-71
2021/07/21 09:38:04;;;;;;;12.82;8.98;;;;;;;25.63;37.65;94027.41;4982279;28;20500;-71
2021/07/21 09:40:29;;;;;;;32.05;11.63;;;;;;;25.66;37.79;94015.03;4978856;28;20038;-71
2021/07/21 09:42:55;;;;;;;15.07;8.50;;;;;;;25.71;38.04;94025.50;4985499;28;20046;-71
2021/07/21 09:45:21;;;;;;;13.35;10.32;;;;;;;25.75;37.73;94023.63;4983157;28;20108;-71
2021/07/21 09:47:55;;;;;;;17.67;10.05;;;;;;;25.88;37.85;94028.31;4985717;28;20567;-71
2021/07/21 09:50:24;;;;;;;13.93;9.60;;;;;;;26.01;37.78;94026.03;4982241;28;20022;-72
2021/07/21 09:52:55;;;;;;;22.45;11.02;;;;;;;25.96;37.84;94029.13;4983472;28;20068;-72
2021/07/21 09:55:23;;;;;;;13.80;9.57;;;;;;;25.81;37.37;94030.19;4982388;28;20030;-72
2021/07/21 09:58:03;;;;;;;15.52;9.88;;;;;;;25.79;37.77;94016.28;4984618;28;20468;-71
2021/07/21 10:00:35;;;;;;;14.90;10.23;;;;;;;25.83;38.00;94023.25;4986097;28;20046;-71
2021/07/21 10:03:22;;;;;;;14.32;8.93;;;;;;;25.82;37.17;94019.00;4986874;28;20755;-71
2021/07/21 10:06:03;;;;;;;14.68;9.80;;;;;;;25.88;36.64;94022.13;4985796;28;20062;-71
2021/07/21 10:08:33;;;;;;;18.90;10.57;;;;;;;25.92;36.52;94019.44;5005056;28;20412;-71
2021/07/21 10:11:18;;;;;;;13.88;8.90;;;;;;;25.98;36.28;94013.28;4988363;28;20053;-72
2021/07/21 10:13:43;;;;;;;14.10;9.20;;;;;;;26.06;36.84;94020.28;4986873;28;20153;-69
2021/07/21 10:16:09;;;;;;;13.90;9.93;;;;;;;26.15;37.00;94009.06;4985093;28;20044;-72
2021/07/21 10:18:34;;;;;;;12.82;9.38;;;;;;;26.37;36.11;93999.13;4982991;28;20070;-71
2021/07/21 10:21:00;;;;;;;17.25;9.32;;;;;;;26.26;36.30;94010.72;4984822;28;20041;-73
2021/07/21 10:23:26;;;;;;;15.95;9.70;;;;;;;25.87;35.89;93969.91;4984284;28;20339;-72
2021/07/21 10:25:51;;;;;;;13.73;9.30;;;;;;;26.01;35.84;94015.22;4985545;28;20045;-71
2021/07/21 10:28:17;;;;;;;12.57;9.10;;;;;;;26.11;35.06;94003.66;4981965;28;20047;-70
2021/07/21 10:30:42;;;;;;;18.45;8.93;;;;;;;25.85;35.03;94003.94;4983247;28;20842;-70
2021/07/21 10:33:10;;;;;;;11.60;8.32;;;;;;;25.91;35.07;94013.22;4980240;28;20100;-71
2021/07/21 10:35:35;;;;;;;12.55;8.85;;;;;;;25.95;34.45;94013.28;4985478;28;20018;-72
2021/07/21 10:38:01;;;;;;;12.02;8.25;;;;;;;25.79;34.34;94010.88;4982455;28;20042;-70
2021/07/21 10:40:32;;;;;;;12.30;7.78;;;;;;;25.74;34.78;94013.94;4985450;28;20038;-72
2021/07/21 10:42:59;;;;;;;12.48;9.43;;;;;;;25.76;35.58;94015.09;4979483;28;20096;-73
2021/07/21 10:45:31;;;;;;;15.15;9.50;;;;;;;25.67;35.36;94008.47;4982673;28;20046;-71
2021/07/21 10:48:13;;;;;;;12.85;8.85;;;;;;;25.68;35.22;94008.09;4977061;28;20025;-72
2021/07/21 10:53:22;;;;;;;13.35;8.18;;;;;;;25.61;35.62;94010.75;4983147;28;20049;-70
2021/07/21 10:59:10;;;;;;;13.05;9.00;;;;;;;25.73;35.51;94012.38;4985923;28;20041;-72
2021/07/21 11:01:28;;;;;;;14.37;8.30;;;;;;;25.80;35.35;93988.06;4980180;28;20124;-70
2021/07/21 11:04:04;;;;;;;13.73;8.25;;;;;;;25.83;34.67;93992.72;4981235;28;20049;-71
2021/07/21 11:06:41;;;;;;;12.00;8.45;;;;;;;25.68;34.41;93985.66;4981035;28;20085;-70
2021/07/21 11:09:21;;;;;;;13.60;8.68;;;;;;;25.67;35.05;93995.72;4979840;28;20080;-72
2021/07/21 11:11:54;;;;;;;12.20;8.20;;;;;;;25.59;34.69;93990.66;4982197;28;20578;-70
2021/07/21 11:14:26;;;;;;;11.98;7.93;;;;;;;25.62;34.92;93998.00;4987892;28;20025;-71
2021/07/21 11:16:53;;;;;;;13.68;8.10;;;;;;;25.76;35.48;94000.78;4982315;28;20038;-72
2021/07/21 11:19:31;;;;;;;12.07;8.73;;;;;;;25.76;34.88;93989.94;4986506;28;20037;-72
2021/07/21 11:22:03;;;;;;;11.15;8.07;;;;;;;25.80;35.89;93999.63;4985636;28;20099;-72
2021/07/21 11:24:52;;;;;;;12.63;8.38;;;;;;;25.97;34.86;93987.34;4984741;28;20053;-71
2021/07/21 11:27:42;;;;;;;11.70;7.82;;;;;;;26.14;35.27;93985.88;4985631;28;20157;-71
2021/07/21 11:30:38;;;;;;;25.05;9.80;;;;;;;26.21;34.76;93994.81;4986095;28;20046;-71
2021/07/21 11:33:40;;;;;;;21.75;8.55;;;;;;;26.21;34.35;93991.31;4987501;28;20041;-70